Time;durP1;ratioP1;P1;durP2;ratioP2;P2;SDS_P1;SDS_P2;PMS_P1;PMS_P2;Temp;Humidity;BMP_temperature;BMP_pressure;BME280_temperature;BME280_humidity;BME280_pressure;Samples;Min_cycle;Max_cycle;Signal;HPM_P1;HPM_P2
2022/03/20 00:00:17;;;;;;;29.90;21.20;;;-1.30;1.00;196.50;224877.00;;;;7398659;19;20125;-80
2022/03/20 00:02:46;;;;;;;31.03;22.70;;;-1.30;1.00;196.50;224877.00;;;;7396580;19;20705;-80
2022/03/20 00:05:14;;;;;;;28.30;20.13;;;-1.30;1.00;196.50;224877.00;;;;7396495;19;20604;-79
2022/03/20 00:07:49;;;;;;;31.13;20.80;;;-1.40;1.00;196.50;224877.00;;;;7397771;19;20144;-80
2022/03/20 00:10:17;;;;;;;30.60;21.93;;;-1.40;1.00;196.50;224877.00;;;;7396628;19;20137;-79
2022/03/20 00:12:44;;;;;;;31.83;21.57;;;-1.40;1.00;196.50;224877.00;;;;7397615;19;20121;-80
2022/03/20 00:15:17;;;;;;;33.70;21.03;;;-1.50;1.00;196.50;224877.00;;;;7394667;19;20143;-80
2022/03/20 00:17:45;;;;;;;32.17;20.40;;;-1.50;1.00;196.50;224877.00;;;;7396808;19;20145;-81
2022/03/20 00:20:12;;;;;;;31.07;20.33;;;-1.60;1.00;196.50;224877.00;;;;7396625;19;20623;-81
2022/03/20 00:23:00;;;;;;;31.37;20.73;;;-1.60;1.00;196.50;224877.00;;;;7394465;19;20144;-81
2022/03/20 00:25:36;;;;;;;29.80;20.40;;;-1.60;1.00;196.50;224877.00;;;;7394055;19;20168;-81
2022/03/20 00:28:16;;;;;;;30.90;21.17;;;-1.70;1.00;196.50;224877.00;;;;7393479;19;20151;-80
2022/03/20 00:30:45;;;;;;;29.63;20.23;;;-1.70;1.00;196.50;224877.00;;;;7394517;19;20144;-81
2022/03/20 00:33:20;;;;;;;29.73;20.93;;;-1.70;1.00;196.50;224877.00;;;;7397259;19;20121;-81
2022/03/20 00:35:47;;;;;;;29.03;20.03;;;-1.70;1.00;196.50;224877.00;;;;7393896;19;20551;-81
2022/03/20 00:38:15;;;;;;;34.77;19.67;;;-1.70;1.00;196.50;224877.00;;;;7394730;19;20137;-80
2022/03/20 00:40:49;;;;;;;31.03;20.27;;;-1.70;99.90;196.50;224877.00;;;;7394558;19;20580;-81
2022/03/20 00:43:16;;;;;;;29.67;20.07;;;-1.70;99.90;196.50;224877.00;;;;7395397;19;20141;-80
2022/03/20 00:45:43;;;;;;;27.90;20.67;;;-1.60;99.90;196.50;224877.00;;;;7395960;19;20129;-80
2022/03/20 00:48:24;;;;;;;26.67;19.47;;;-1.60;99.90;196.50;224877.00;;;;7395600;19;20136;-80
2022/03/20 00:50:54;;;;;;;32.43;20.47;;;-1.60;99.90;196.50;224877.00;;;;7395170;19;20165;-81
2022/03/20 00:53:33;;;;;;;26.23;19.40;;;-1.50;99.90;196.50;224877.00;;;;7395704;19;20584;-80
2022/03/20 00:56:00;;;;;;;27.03;18.77;;;-1.50;99.90;196.50;224877.00;;;;7393263;19;20149;-81
2022/03/20 00:58:27;;;;;;;26.80;19.83;;;-1.50;99.90;196.50;224877.00;;;;7395042;19;20132;-81
2022/03/20 01:01:00;;;;;;;30.67;20.30;;;-1.50;99.90;196.50;224877.00;;;;7395879;19;20128;-81
2022/03/20 01:03:28;;;;;;;26.00;18.63;;;-1.50;99.90;196.50;224877.00;;;;7394477;19;20136;-81
2022/03/20 01:05:55;;;;;;;27.90;19.77;;;-1.50;99.90;196.50;224877.00;;;;7395510;19;20144;-80
2022/03/20 01:08:28;;;;;;;26.53;18.60;;;-1.50;99.90;196.50;224877.00;;;;7396308;19;20124;-81
2022/03/20 01:10:55;;;;;;;23.03;18.20;;;-1.40;99.90;196.50;224877.00;;;;7394566;19;20166;-81
2022/03/20 01:13:23;;;;;;;25.70;18.83;;;-1.40;99.90;196.50;224877.00;;;;7395296;19;20604;-80
2022/03/20 01:15:57;;;;;;;26.23;19.13;;;-1.40;99.90;196.50;224877.00;;;;7392743;19;20486;-80
2022/03/20 01:18:25;;;;;;;26.23;18.23;;;-1.40;73.90;196.50;224877.00;;;;7393509;19;20149;-81
2022/03/20 01:20:53;;;;;;;26.33;18.63;;;-1.40;22.60;196.50;224877.00;;;;7394150;19;20137;-80
2022/03/20 01:23:40;;;;;;;22.87;17.13;;;-1.30;1.00;196.50;224877.00;;;;7392546;19;20160;-80
2022/03/20 01:26:15;;;;;;;22.60;18.03;;;-1.30;1.00;196.50;224877.00;;;;7393037;19;20631;-80
2022/03/20 01:28:49;;;;;;;25.93;18.30;;;-1.40;1.00;196.50;224877.00;;;;7393666;19;20608;-82
2022/03/20 01:31:16;;;;;;;25.00;18.13;;;-1.40;1.00;196.50;224877.00;;;;7394408;19;20165;-82
2022/03/20 01:33:44;;;;;;;24.83;17.20;;;-1.40;1.00;196.50;224877.00;;;;7395181;19;20161;-82
2022/03/20 01:36:17;;;;;;;24.20;17.90;;;-1.30;1.00;196.50;224877.00;;;;7392037;19;20617;-81
2022/03/20 01:38:45;;;;;;;23.37;16.67;;;-1.30;1.00;196.50;224877.00;;;;7393381;19;20584;-80
2022/03/20 01:41:12;;;;;;;26.97;17.93;;;-1.20;1.00;196.50;224877.00;;;;7394430;19;20177;-80
2022/03/20 01:44:04;;;;;;;27.43;17.93;;;-1.20;1.00;196.50;224877.00;;;;7394138;19;20624;-81
2022/03/20 01:46:32;;;;;;;31.00;18.77;;;-1.20;1.00;196.50;224877.00;;;;7393997;19;20141;-81
2022/03/20 01:49:06;;;;;;;25.97;18.10;;;-1.00;1.00;196.50;224877.00;;;;7394715;19;20195;-81
2022/03/20 01:54:26;;;;;;;24.17;16.40;;;-1.00;1.00;196.50;224877.00;;;;7393230;19;20166;-79
2022/03/20 01:56:53;;;;;;;25.80;17.73;;;-0.90;1.00;196.50;224877.00;;;;7393261;19;20136;-80
2022/03/20 01:59:20;;;;;;;24.63;16.50;;;-0.80;1.00;196.50;224877.00;;;;7392841;19;20150;-80
2022/03/20 02:01:54;;;;;;;23.57;16.37;;;-0.70;99.90;196.50;224877.00;;;;7392705;19;20602;-76
2022/03/20 02:04:22;;;;;;;24.43;16.87;;;-0.60;99.90;196.50;224877.00;;;;7393292;19;20148;-77
2022/03/20 02:06:49;;;;;;;26.33;17.80;;;-0.70;99.90;196.50;224877.00;;;;7391901;19;20611;-77
2022/03/20 02:09:23;;;;;;;23.30;16.67;;;-0.70;99.90;196.50;224877.00;;;;7391864;19;20137;-76
2022/03/20 02:11:51;;;;;;;25.57;17.43;;;-0.60;99.90;196.50;224877.00;;;;7393257;19;20734;-78
2022/03/20 02:14:19;;;;;;;22.17;16.60;;;-0.70;99.90;196.50;224877.00;;;;7389949;19;20125;-77
2022/03/20 02:16:55;;;;;;;23.63;17.43;;;-0.70;99.90;196.50;224877.00;;;;7391977;19;20211;-76
2022/03/20 02:19:24;;;;;;;26.30;16.97;;;-0.70;99.90;196.50;224877.00;;;;7391841;19;20143;-77
2022/03/20 02:21:52;;;;;;;24.40;16.47;;;-0.70;99.90;196.50;224877.00;;;;7391921;19;20125;-77
2022/03/20 02:24:42;;;;;;;24.90;18.43;;;-0.80;99.90;196.50;224877.00;;;;7391577;19;20185;-77
2022/03/20 02:27:26;;;;;;;27.00;17.93;;;-0.90;99.90;196.50;224877.00;;;;7389715;19;20521;-76
2022/03/20 02:30:12;;;;;;;27.33;16.83;;;-0.90;99.90;196.50;224877.00;;;;7391314;19;20132;-77
2022/03/20 02:32:43;;;;;;;25.00;17.80;;;-0.90;99.90;196.50;224877.00;;;;7391642;19;20142;-79
2022/03/20 02:35:19;;;;;;;23.73;16.13;;;-0.80;99.90;196.50;224877.00;;;;7390819;19;20133;-78
2022/03/20 02:37:52;;;;;;;25.27;17.60;;;-0.70;99.90;196.50;224877.00;;;;7391733;19;20137;-78
2022/03/20 02:40:26;;;;;;;24.03;17.20;;;-0.60;99.90;196.50;224877.00;;;;7391563;19;20504;-76
2022/03/20 02:42:54;;;;;;;23.90;17.07;;;-0.40;99.90;196.50;224877.00;;;;7390743;19;20622;-77
2022/03/20 02:45:30;;;;;;;22.97;16.07;;;-0.40;99.90;196.50;224877.00;;;;7391029;19;20132;-77
2022/03/20 02:48:04;;;;;;;27.17;16.87;;;-0.30;99.90;196.50;224877.00;;;;7392010;19;20188;-77
2022/03/20 02:50:37;;;;;;;26.70;17.47;;;-0.30;99.90;196.50;224877.00;;;;7391261;19;20141;-77
2022/03/20 02:53:11;;;;;;;24.37;17.57;;;-0.30;99.90;196.50;224877.00;;;;7390820;19;20142;-77
2022/03/20 02:55:45;;;;;;;22.30;16.57;;;-0.30;99.90;196.50;224877.00;;;;7389741;19;20580;-77
2022/03/20 02:58:19;;;;;;;24.27;16.43;;;-0.30;99.90;196.50;224877.00;;;;7391548;19;20131;-78
2022/03/20 03:00:46;;;;;;;24.43;16.13;;;-0.30;99.90;196.50;224877.00;;;;7390143;19;20125;-77
2022/03/20 03:03:16;;;;;;;26.77;16.70;;;-0.20;99.90;196.50;224877.00;;;;7390299;19;20137;-77
2022/03/20 03:05:58;;;;;;;27.03;16.63;;;0.00;99.90;196.50;224877.00;;;;7391374;19;20140;-78
2022/03/20 03:11:19;;;;;;;22.67;15.43;;;0.20;99.90;196.50;224877.00;;;;7395677;19;20192;-78
2022/03/20 03:13:47;;;;;;;22.90;15.57;;;0.30;85.10;196.50;224877.00;;;;7390610;19;20149;-77
2022/03/20 03:16:16;;;;;;;23.90;15.77;;;0.30;94.30;196.50;224877.00;;;;7390268;19;20172;-78
2022/03/20 03:18:51;;;;;;;22.17;15.50;;;0.30;99.90;196.50;224877.00;;;;7392450;19;20145;-78
2022/03/20 03:21:18;;;;;;;21.67;16.17;;;0.30;99.90;196.50;224877.00;;;;7393710;19;20147;-75
2022/03/20 03:23:45;;;;;;;24.13;16.43;;;0.30;99.90;196.50;224877.00;;;;7388034;19;20188;-77
2022/03/20 03:26:18;;;;;;;23.10;15.60;;;0.40;99.90;196.50;224877.00;;;;7395875;19;20176;-78
2022/03/20 03:28:46;;;;;;;22.13;15.47;;;0.40;99.90;196.50;224877.00;;;;7401757;19;20139;-77
2022/03/20 03:31:13;;;;;;;25.63;16.90;;;0.40;99.90;196.50;224877.00;;;;7399956;19;20152;-78
2022/03/20 03:36:33;;;;;;;22.80;16.13;;;0.50;99.90;196.50;224877.00;;;;7396827;19;20145;-78
2022/03/20 03:39:07;;;;;;;26.23;16.43;;;0.60;70.50;196.50;224877.00;;;;7401151;19;20493;-78
2022/03/20 03:41:36;;;;;;;21.70;16.23;;;0.60;63.00;196.50;224877.00;;;;7397686;19;20145;-78
2022/03/20 03:44:03;;;;;;;27.33;16.37;;;0.60;66.20;196.50;224877.00;;;;7395786;19;20137;-77
2022/03/20 03:46:37;;;;;;;22.67;16.23;;;0.50;99.90;196.50;224877.00;;;;7393101;19;20141;-78
2022/03/20 03:49:04;;;;;;;26.67;17.23;;;0.50;99.90;196.50;224877.00;;;;7392834;19;20212;-78
2022/03/20 03:51:31;;;;;;;23.47;16.23;;;0.40;99.90;196.50;224877.00;;;;7396106;19;20137;-76
2022/03/20 03:54:06;;;;;;;24.43;16.37;;;0.40;99.90;196.50;224877.00;;;;7394580;19;20143;-76
2022/03/20 03:56:33;;;;;;;27.63;17.67;;;0.30;99.90;196.50;224877.00;;;;7394231;19;20158;-77
2022/03/20 03:59:00;;;;;;;26.50;16.73;;;0.20;99.90;196.50;224877.00;;;;7396471;19;20508;-76
2022/03/20 04:01:34;;;;;;;24.20;16.93;;;0.20;99.90;196.50;224877.00;;;;7396174;19;20139;-76
2022/03/20 04:04:02;;;;;;;22.10;15.83;;;0.20;99.90;196.50;224877.00;;;;7396491;19;20133;-77
2022/03/20 04:06:29;;;;;;;25.87;16.90;;;0.20;99.90;196.50;224877.00;;;;7396711;19;20937;-77
2022/03/20 04:09:04;;;;;;;25.50;16.63;;;0.30;99.90;196.50;224877.00;;;;7395975;19;20133;-77
2022/03/20 04:11:32;;;;;;;27.40;16.90;;;0.30;99.90;196.50;224877.00;;;;7395389;19;20137;-77
2022/03/20 04:13:59;;;;;;;28.50;17.30;;;0.30;99.90;196.50;224877.00;;;;7396685;19;20140;-77
2022/03/20 04:16:33;;;;;;;24.30;17.17;;;0.30;99.90;196.50;224877.00;;;;7393869;19;20137;-77
2022/03/20 04:19:00;;;;;;;24.83;16.10;;;0.20;99.90;196.50;224877.00;;;;7395251;19;20137;-76
2022/03/20 04:21:27;;;;;;;28.73;17.83;;;0.30;99.90;196.50;224877.00;;;;7396076;19;20128;-77
2022/03/20 04:24:07;;;;;;;24.47;16.97;;;0.30;99.90;196.50;224877.00;;;;7393583;19;20170;-78
2022/03/20 04:26:34;;;;;;;24.17;17.73;;;0.30;99.90;196.50;224877.00;;;;7393752;19;20242;-78
2022/03/20 04:29:08;;;;;;;27.00;17.93;;;0.20;99.90;196.50;224877.00;;;;7395061;19;20607;-78
2022/03/20 04:31:36;;;;;;;25.13;17.00;;;0.20;99.90;196.50;224877.00;;;;7395726;19;20133;-78
2022/03/20 04:34:04;;;;;;;24.80;18.63;;;0.10;99.90;196.50;224877.00;;;;7395205;19;20153;-76
2022/03/20 04:36:38;;;;;;;32.77;18.17;;;0.10;99.90;196.50;224877.00;;;;7391718;19;20565;-76
2022/03/20 04:39:05;;;;;;;30.57;18.13;;;0.20;99.90;196.50;224877.00;;;;7395468;19;20625;-76
2022/03/20 04:41:32;;;;;;;32.07;17.93;;;0.20;99.90;196.50;224877.00;;;;7395408;19;20501;-77
2022/03/20 04:44:07;;;;;;;26.97;18.63;;;0.30;99.90;196.50;224877.00;;;;7396171;19;20129;-76
2022/03/20 04:46:34;;;;;;;25.63;18.23;;;0.20;99.90;196.50;224877.00;;;;7394327;19;20154;-78
2022/03/20 05:00:18;;;;;;;25.30;17.63;;;-0.10;99.90;196.50;224877.00;;;;7395990;19;20576;-76
2022/03/20 05:02:51;;;;;;;26.73;18.77;;;-0.10;99.90;196.50;224877.00;;;;7395624;19;20600;-77
2022/03/20 05:05:19;;;;;;;28.47;18.60;;;-0.20;99.90;196.50;224877.00;;;;7393704;19;20141;-78
2022/03/20 05:07:46;;;;;;;27.37;18.63;;;-0.20;99.90;196.50;224877.00;;;;7394549;19;20147;-77
2022/03/20 05:13:19;;;;;;;28.57;19.90;;;-0.10;99.90;196.50;224877.00;;;;7395348;19;20146;-76
2022/03/20 05:15:55;;;;;;;30.23;19.73;;;0.00;99.90;196.50;224877.00;;;;7392914;19;20149;-77
2022/03/20 05:18:23;;;;;;;25.53;19.57;;;0.00;99.90;196.50;224877.00;;;;7393343;19;20151;-76
2022/03/20 05:20:52;;;;;;;30.13;20.73;;;0.10;99.90;196.50;224877.00;;;;7394221;19;20628;-78
2022/03/20 05:23:40;;;;;;;31.20;20.50;;;0.20;99.90;196.50;224877.00;;;;7392783;19;20164;-76
2022/03/20 05:26:13;;;;;;;28.77;19.63;;;0.30;99.90;196.50;224877.00;;;;7394201;19;20143;-77
2022/03/20 05:28:48;;;;;;;31.93;20.33;;;0.30;99.90;196.50;224877.00;;;;7393623;19;20151;-77
2022/03/20 05:31:15;;;;;;;28.83;20.73;;;0.40;99.90;196.50;224877.00;;;;7391467;19;20170;-77
2022/03/20 05:33:43;;;;;;;29.37;21.17;;;0.50;99.90;196.50;224877.00;;;;7393650;19;20203;-77
2022/03/20 05:36:18;;;;;;;30.13;20.30;;;0.60;99.90;196.50;224877.00;;;;7391520;19;20139;-76
2022/03/20 05:38:45;;;;;;;33.67;21.87;;;0.60;99.90;196.50;224877.00;;;;7393272;19;20144;-78
2022/03/20 05:44:05;;;;;;;32.90;22.13;;;0.90;99.90;196.50;224877.00;;;;7394154;19;20133;-75
2022/03/20 05:46:32;;;;;;;34.60;22.60;;;1.00;99.90;196.50;224877.00;;;;7393369;19;20486;-76
2022/03/20 05:48:59;;;;;;;32.97;21.90;;;1.10;99.90;196.50;224877.00;;;;7392583;19;20197;-77
2022/03/20 05:51:34;;;;;;;29.30;21.00;;;1.20;99.90;196.50;224877.00;;;;7396216;19;20159;-76
2022/03/20 05:54:02;;;;;;;28.47;21.07;;;1.30;99.90;196.50;224877.00;;;;7396525;19;20137;-78
2022/03/20 05:59:36;;;;;;;32.13;22.40;;;1.60;99.90;196.50;224877.00;;;;7395830;19;20137;-76
2022/03/20 06:02:06;;;;;;;29.63;20.90;;;1.70;99.90;196.50;224877.00;;;;7395705;19;20538;-77
2022/03/20 06:04:40;;;;;;;28.30;21.03;;;1.80;91.60;196.50;224877.00;;;;7396089;19;20167;-77
2022/03/20 06:07:08;;;;;;;28.87;21.17;;;1.90;65.50;196.50;224877.00;;;;7397989;19;20140;-77
2022/03/20 06:09:37;;;;;;;31.77;22.63;;;2.00;73.20;196.50;224877.00;;;;7394842;19;20150;-77
2022/03/20 06:12:11;;;;;;;33.87;21.87;;;2.00;43.70;196.50;224877.00;;;;7393993;19;20485;-77
2022/03/20 06:14:38;;;;;;;30.30;21.67;;;2.10;52.30;196.50;224877.00;;;;7394426;19;20140;-77
2022/03/20 06:17:06;;;;;;;29.03;21.17;;;2.20;42.00;196.50;224877.00;;;;7394734;19;20125;-78
2022/03/20 06:19:40;;;;;;;31.90;23.50;;;2.20;97.00;196.50;224877.00;;;;7393023;19;20151;-78
2022/03/20 06:22:07;;;;;;;35.80;22.77;;;2.20;99.90;196.50;224877.00;;;;7396044;19;20152;-76
2022/03/20 06:24:41;;;;;;;33.20;23.53;;;2.10;99.90;196.50;224877.00;;;;7388304;19;20211;-76
2022/03/20 06:27:15;;;;;;;35.47;23.63;;;2.00;99.90;196.50;224877.00;;;;7389441;19;20508;-77
2022/03/20 06:29:43;;;;;;;36.50;24.20;;;2.00;99.90;196.50;224877.00;;;;7392353;19;20145;-78
2022/03/20 06:32:10;;;;;;;36.73;24.53;;;2.10;99.90;196.50;224877.00;;;;7389710;19;20145;-76
2022/03/20 06:34:44;;;;;;;33.63;23.60;;;2.10;99.90;196.50;224877.00;;;;7392145;19;20141;-77
2022/03/20 06:37:11;;;;;;;35.67;25.07;;;2.10;99.90;196.50;224877.00;;;;7390880;19;20137;-77
2022/03/20 06:39:39;;;;;;;31.50;22.83;;;2.10;99.90;196.50;224877.00;;;;7392797;19;20125;-76
2022/03/20 06:42:13;;;;;;;39.07;25.63;;;2.10;99.90;196.50;224877.00;;;;7393944;19;20148;-77
2022/03/20 06:44:40;;;;;;;35.13;24.13;;;2.10;99.90;196.50;224877.00;;;;7394023;19;20133;-75
2022/03/20 06:47:08;;;;;;;34.30;25.30;;;2.10;99.90;196.50;224877.00;;;;7394948;19;20161;-76
2022/03/20 06:49:43;;;;;;;34.27;25.03;;;2.20;99.90;196.50;224877.00;;;;7394686;19;20148;-76
2022/03/20 06:52:10;;;;;;;33.57;24.17;;;2.30;99.90;196.50;224877.00;;;;7394384;19;20137;-77
2022/03/20 06:54:38;;;;;;;32.87;23.20;;;;;196.50;224877.00;;;;7395792;19;20510;-77
2022/03/20 06:57:13;;;;;;;31.50;22.53;;;;;196.50;224877.00;;;;7393546;19;20196;-76
2022/03/20 06:59:46;;;;;;;35.20;24.37;;;;;196.50;224877.00;;;;7396589;19;20498;-76
2022/03/20 07:02:21;;;;;;;33.40;24.53;;;;;196.50;224877.00;;;;7392348;19;20153;-76
2022/03/20 07:04:51;;;;;;;37.07;26.03;;;;;196.50;224877.00;;;;7397065;19;20173;-76
2022/03/20 07:07:23;;;;;;;34.83;24.73;;;;;196.50;224877.00;;;;7392348;19;20133;-77
2022/03/20 07:09:57;;;;;;;32.60;23.33;;;;;196.50;224877.00;;;;7393185;19;20144;-76
2022/03/20 07:12:25;;;;;;;35.50;23.63;;;3.00;99.90;196.50;224877.00;;;;7393254;19;20125;-75
2022/03/20 07:14:55;;;;;;;30.70;22.07;;;3.10;99.90;196.50;224877.00;;;;7391517;19;20152;-76
2022/03/20 07:17:30;;;;;;;33.50;23.57;;;3.50;96.20;196.50;224877.00;;;;7390532;19;20161;-77
2022/03/20 07:19:58;;;;;;;30.30;21.83;;;3.70;99.90;196.50;224877.00;;;;7392240;19;20171;-76
2022/03/20 07:22:26;;;;;;;29.77;22.73;;;3.70;27.50;196.50;224877.00;;;;7390908;19;20140;-76
2022/03/20 07:30:46;;;;;;;33.87;23.93;;;3.70;99.90;196.50;224877.00;;;;7392287;19;20162;-76
2022/03/20 07:33:14;;;;;;;35.20;26.50;;;3.70;16.70;196.50;224877.00;;;;7392934;19;20174;-77
2022/03/20 07:35:42;;;;;;;29.57;22.13;;;3.80;8.90;196.50;224877.00;;;;7392729;19;20137;-76
2022/03/20 07:38:16;;;;;;;30.27;21.43;;;4.00;1.00;196.50;224877.00;;;;7391552;19;20503;-76
2022/03/20 07:40:43;;;;;;;28.13;21.13;;;4.10;1.00;196.50;224877.00;;;;7392213;19;20135;-76
2022/03/20 07:43:13;;;;;;;26.17;21.13;;;4.20;1.00;196.50;224877.00;;;;7393448;19;20604;-77
2022/03/20 07:45:47;;;;;;;31.70;21.33;;;4.40;1.00;196.50;224877.00;;;;7392104;19;20140;-75
2022/03/20 07:48:15;;;;;;;28.37;21.90;;;4.50;1.00;196.50;224877.00;;;;7392212;19;20611;-76
2022/03/20 07:50:42;;;;;;;28.90;21.87;;;4.60;1.00;196.50;224877.00;;;;7394650;19;20480;-76
2022/03/20 07:53:17;;;;;;;30.03;21.07;;;4.70;1.00;196.50;224877.00;;;;7392582;19;20121;-78
2022/03/20 07:55:46;;;;;;;27.37;20.90;;;4.80;1.00;196.50;224877.00;;;;7394078;19;20487;-75
2022/03/20 07:58:19;;;;;;;28.20;22.03;;;4.90;1.00;196.50;224877.00;;;;7392047;19;20145;-78
2022/03/20 08:00:54;;;;;;;28.30;20.80;;;5.20;1.00;196.50;224877.00;;;;7392639;19;20495;-76
2022/03/20 08:03:22;;;;;;;26.37;19.93;;;5.40;1.00;196.50;224877.00;;;;7394623;19;20154;-76
2022/03/20 08:05:50;;;;;;;30.10;21.83;;;5.40;1.00;196.50;224877.00;;;;7395023;19;20137;-76
2022/03/20 08:08:24;;;;;;;26.83;19.77;;;5.70;1.00;196.50;224877.00;;;;7391780;19;20128;-76
2022/03/20 08:10:51;;;;;;;25.43;20.07;;;6.10;1.00;196.50;224877.00;;;;7392936;19;20144;-76
2022/03/20 08:13:19;;;;;;;31.63;22.17;;;6.20;1.00;196.50;224877.00;;;;7398530;19;20490;-77
2022/03/20 08:15:53;;;;;;;25.87;20.13;;;6.20;1.00;196.50;224877.00;;;;7400229;19;20133;-77
2022/03/20 08:18:21;;;;;;;27.57;20.63;;;6.10;1.00;196.50;224877.00;;;;7396199;19;20133;-76
2022/03/20 08:20:48;;;;;;;26.03;20.20;;;6.00;1.00;196.50;224877.00;;;;7395669;19;20166;-78
2022/03/20 08:23:35;;;;;;;31.60;20.53;;;6.20;1.00;196.50;224877.00;;;;7394561;19;20172;-77
2022/03/20 08:26:11;;;;;;;30.40;20.30;;;6.30;1.00;196.50;224877.00;;;;7394384;19;20176;-77
2022/03/20 08:28:45;;;;;;;32.43;20.70;;;6.20;1.00;196.50;224877.00;;;;7397429;19;20140;-76
2022/03/20 08:31:14;;;;;;;27.63;20.70;;;6.50;1.00;196.50;224877.00;;;;7399932;19;20145;-76
2022/03/20 08:33:41;;;;;;;27.80;20.53;;;6.60;1.00;196.50;224877.00;;;;7398997;19;20162;-77
2022/03/20 08:36:15;;;;;;;30.13;22.30;;;7.10;1.00;196.50;224877.00;;;;7400757;19;20164;-77
2022/03/20 08:38:43;;;;;;;34.23;25.17;;;7.50;1.00;196.50;224877.00;;;;7399910;19;20490;-76
2022/03/20 08:41:11;;;;;;;28.27;21.90;;;7.60;1.00;196.50;224877.00;;;;7400515;19;20121;-76
2022/03/20 08:43:45;;;;;;;27.97;21.17;;;7.50;1.00;196.50;224877.00;;;;7401838;19;20141;-76
2022/03/20 08:46:16;;;;;;;28.63;20.83;;;7.20;1.00;196.50;224877.00;;;;7398012;19;20558;-75
2022/03/20 08:48:44;;;;;;;27.03;20.90;;;6.90;1.00;196.50;224877.00;;;;7404162;19;20132;-77
2022/03/20 08:51:18;;;;;;;31.43;21.67;;;6.70;1.00;196.50;224877.00;;;;7400067;19;20140;-75
2022/03/20 08:53:45;;;;;;;31.33;22.57;;;6.50;1.00;196.50;224877.00;;;;7398662;19;20125;-77
2022/03/20 08:56:14;;;;;;;32.83;21.67;;;6.40;1.00;196.50;224877.00;;;;7398686;19;20143;-76
2022/03/20 08:58:50;;;;;;;30.13;20.77;;;6.40;1.00;196.50;224877.00;;;;7402130;19;20148;-74
2022/03/20 09:01:21;;;;;;;31.23;21.60;;;6.50;1.00;196.50;224877.00;;;;7398726;19;20446;-75
2022/03/20 09:03:56;;;;;;;31.53;21.33;;;6.70;1.00;196.50;224877.00;;;;7398689;19;20617;-76
2022/03/20 09:06:24;;;;;;;30.67;21.03;;;6.80;1.00;196.50;224877.00;;;;7398423;19;20151;-77
2022/03/20 09:08:53;;;;;;;28.93;21.17;;;6.80;1.00;196.50;224877.00;;;;7399714;19;20133;-77
2022/03/20 09:11:27;;;;;;;28.80;20.67;;;6.90;1.00;196.50;224877.00;;;;7401338;19;20275;-75
2022/03/20 09:13:54;;;;;;;25.53;20.43;;;7.10;1.00;196.50;224877.00;;;;7397645;19;20117;-76
2022/03/20 09:19:14;;;;;;;28.93;20.17;;;7.40;1.00;196.50;224877.00;;;;7397159;19;20613;-76
2022/03/20 09:21:42;;;;;;;33.73;19.13;;;7.50;1.00;196.50;224877.00;;;;7398529;19;20161;-77
2022/03/20 09:24:09;;;;;;;28.03;19.03;;;7.60;1.00;196.50;224877.00;;;;7395816;19;20638;-75
2022/03/20 09:26:50;;;;;;;29.70;18.60;;;7.70;1.00;196.50;224877.00;;;;7396411;19;20626;-76
2022/03/20 09:29:18;;;;;;;30.23;19.13;;;7.60;1.00;196.50;224877.00;;;;7396205;19;20136;-77
2022/03/20 09:31:53;;;;;;;23.90;18.40;;;7.70;1.00;196.50;224877.00;;;;7397686;19;20129;-77
2022/03/20 09:34:20;;;;;;;28.53;19.07;;;7.70;1.00;196.50;224877.00;;;;7398667;19;20148;-77
2022/03/20 09:36:48;;;;;;;30.47;19.07;;;7.80;1.00;196.50;224877.00;;;;7397118;19;20121;-76
2022/03/20 09:39:22;;;;;;;30.47;20.03;;;8.00;1.00;196.50;224877.00;;;;7397118;19;20129;-77
2022/03/20 09:41:51;;;;;;;24.53;18.03;;;8.10;1.00;196.50;224877.00;;;;7398368;19;20601;-76
2022/03/20 09:44:24;;;;;;;28.07;17.57;;;8.40;1.00;196.50;224877.00;;;;7397877;19;20137;-75
2022/03/20 09:46:58;;;;;;;25.13;18.07;;;8.60;1.00;196.50;224877.00;;;;7398810;19;20125;-76
2022/03/20 09:49:27;;;;;;;27.02;17.45;;;8.80;1.00;196.50;224877.00;;;;7397664;19;20157;-76
2022/03/20 09:51:55;;;;;;;27.03;17.57;;;8.90;1.00;196.50;224877.00;;;;7398270;19;20154;-76
2022/03/20 09:54:29;;;;;;;29.58;18.30;;;9.00;1.00;196.50;224877.00;;;;7397331;19;20498;-77
2022/03/20 09:56:57;;;;;;;26.50;18.40;;;8.90;1.00;196.50;224877.00;;;;7396687;19;20137;-76
2022/03/20 09:59:25;;;;;;;25.73;17.30;;;8.90;1.00;196.50;224877.00;;;;7399254;19;20133;-77
2022/03/20 10:02:13;;;;;;;22.60;17.83;;;8.90;1.00;196.50;224877.00;;;;7397605;19;20140;-76
2022/03/20 10:04:57;;;;;;;27.40;19.50;;;8.80;1.00;196.50;224877.00;;;;7397108;19;20129;-79
2022/03/20 10:07:36;;;;;;;24.77;17.93;;;8.80;1.00;196.50;224877.00;;;;7398383;19;20608;-77
2022/03/20 10:10:29;;;;;;;24.97;18.73;;;8.80;1.00;196.50;224877.00;;;;7397555;19;20129;-76
2022/03/20 10:13:13;;;;;;;29.07;19.33;;;8.80;1.00;196.50;224877.00;;;;7397612;19;20129;-76
2022/03/20 10:15:43;;;;;;;34.13;19.87;;;8.90;1.00;196.50;224877.00;;;;7397199;19;20129;-78
2022/03/20 10:18:21;;;;;;;39.88;23.98;;;9.00;1.00;196.50;224877.00;;;;7395799;19;20144;-75
2022/03/20 10:20:57;;;;;;;38.92;22.92;;;9.40;1.00;196.50;224877.00;;;;7397032;19;20125;-76
2022/03/20 10:23:47;;;;;;;122.88;62.08;;;9.70;1.00;196.50;224877.00;;;;7395364;19;20165;-76
2022/03/20 10:26:17;;;;;;;25.15;18.27;;;10.10;1.00;196.50;224877.00;;;;7396168;19;20165;-76
2022/03/20 10:28:52;;;;;;;32.83;21.45;;;10.50;1.00;196.50;224877.00;;;;7397173;19;20625;-75
2022/03/20 10:31:20;;;;;;;26.42;17.10;;;11.10;1.00;196.50;224877.00;;;;7396331;19;20144;-75
2022/03/20 10:34:09;;;;;;;26.08;18.40;;;11.00;1.00;196.50;224877.00;;;;7395527;19;20144;-75
2022/03/20 10:36:44;;;;;;;26.42;17.05;;;11.50;1.00;196.50;224877.00;;;;7395846;19;20137;-73
2022/03/20 10:39:21;;;;;;;23.77;17.13;;;11.80;1.00;196.50;224877.00;;;;7396193;19;20121;-74
2022/03/20 10:41:57;;;;;;;22.55;17.85;;;12.10;1.00;196.50;224877.00;;;;7396742;19;20140;-76
2022/03/20 10:44:31;;;;;;;24.02;15.60;;;12.20;1.00;196.50;224877.00;;;;7397354;19;20145;-75
2022/03/20 10:47:13;;;;;;;19.98;15.70;;;12.30;1.00;196.50;224877.00;;;;7396217;19;20132;-75
2022/03/20 10:50:02;;;;;;;24.85;13.30;;;12.50;1.00;196.50;224877.00;;;;7396285;19;20153;-74
2022/03/20 10:52:37;;;;;;;24.75;15.32;;;12.60;1.00;196.50;224877.00;;;;7393525;19;20481;-76
2022/03/20 10:55:13;;;;;;;21.52;15.00;;;12.70;1.00;196.50;224877.00;;;;7393592;19;20137;-76
2022/03/20 10:57:50;;;;;;;19.48;13.48;;;12.40;1.00;196.50;224877.00;;;;7394331;19;20208;-75
2022/03/20 11:00:25;;;;;;;20.00;14.75;;;12.40;1.00;196.50;224877.00;;;;7395271;19;20141;-76
2022/03/20 11:03:03;;;;;;;22.15;14.20;;;13.10;1.00;196.50;224877.00;;;;7396152;19;20137;-75
2022/03/20 11:05:31;;;;;;;20.33;14.43;;;13.30;1.00;196.50;224877.00;;;;7395478;19;20136;-75
2022/03/20 11:08:00;;;;;;;19.70;13.95;;;;;196.50;224877.00;;;;7393526;19;20532;-76
2022/03/20 11:10:35;;;;;;;16.90;12.15;;;14.00;99.90;196.50;224877.00;;;;7392096;19;20127;-76
2022/03/20 11:13:05;;;;;;;15.38;11.70;;;14.00;99.90;196.50;224877.00;;;;7391445;19;20538;-75
2022/03/20 11:15:34;;;;;;;21.92;12.63;;;14.20;99.90;196.50;224877.00;;;;7391231;19;20149;-75
2022/03/20 11:18:08;;;;;;;18.90;12.45;;;14.20;99.90;196.50;224877.00;;;;7389969;19;20474;-76
2022/03/20 11:20:38;;;;;;;16.60;11.90;;;14.60;99.90;196.50;224877.00;;;;7391791;19;20133;-77
2022/03/20 11:23:14;;;;;;;15.65;12.18;;;14.60;99.90;196.50;224877.00;;;;7391687;19;20145;-75
2022/03/20 11:25:59;;;;;;;20.27;12.18;;;14.90;99.90;196.50;224877.00;;;;7390527;19;20179;-74
2022/03/20 11:28:41;;;;;;;17.30;11.55;;;15.00;99.90;196.50;224877.00;;;;7391249;19;20465;-75
2022/03/20 11:31:16;;;;;;;16.20;11.73;;;15.10;99.90;196.50;224877.00;;;;7392185;19;20484;-75